sensor_id;sensor_type;location;lat;lon;timestamp;temperature;humidity
41926;DHT22;27615;51.826;5.692;2022-10-31T00:02:00;14.40;99.90
41926;DHT22;27615;51.826;5.692;2022-10-31T00:04:25;14.40;99.90
41926;DHT22;27615;51.826;5.692;2022-10-31T00:06:51;14.30;99.90
41926;DHT22;27615;51.826;5.692;2022-10-31T00:09:16;14.30;99.90
41926;DHT22;27615;51.826;5.692;2022-10-31T00:11:42;14.30;99.90
41926;DHT22;27615;51.826;5.692;2022-10-31T00:14:07;14.30;99.90
41926;DHT22;27615;51.826;5.692;2022-10-31T00:16:33;14.30;99.90
41926;DHT22;27615;51.826;5.692;2022-10-31T00:19:01;14.30;99.90
41926;DHT22;27615;51.826;5.692;2022-10-31T00:21:28;14.30;99.90
41926;DHT22;27615;51.826;5.692;2022-10-31T00:23:54;14.40;99.90
41926;DHT22;27615;51.826;5.692;2022-10-31T00:26:19;14.40;99.90
41926;DHT22;27615;51.826;5.692;2022-10-31T00:28:45;14.30;99.90
41926;DHT22;27615;51.826;5.692;2022-10-31T00:31:11;14.30;99.90
41926;DHT22;27615;51.826;5.692;2022-10-31T00:33:39;14.20;99.90
41926;DHT22;27615;51.826;5.692;2022-10-31T00:36:06;14.00;99.90
41926;DHT22;27615;51.826;5.692;2022-10-31T00:38:32;13.90;99.90
41926;DHT22;27615;51.826;5.692;2022-10-31T00:40:58;13.80;99.90
41926;DHT22;27615;51.826;5.692;2022-10-31T00:43:23;13.80;99.90
41926;DHT22;27615;51.826;5.692;2022-10-31T00:45:49;13.70;99.90
41926;DHT22;27615;51.826;5.692;2022-10-31T00:48:14;13.70;99.90
41926;DHT22;27615;51.826;5.692;2022-10-31T00:50:40;13.70;99.90
41926;DHT22;27615;51.826;5.692;2022-10-31T00:53:06;13.70;99.90
41926;DHT22;27615;51.826;5.692;2022-10-31T00:55:32;13.70;99.90
41926;DHT22;27615;51.826;5.692;2022-10-31T00:57:58;13.70;99.90
41926;DHT22;27615;51.826;5.692;2022-10-31T01:00:23;13.70;99.90
41926;DHT22;27615;51.826;5.692;2022-10-31T01:02:49;13.70;99.90
41926;DHT22;27615;51.826;5.692;2022-10-31T01:05:15;13.80;99.90
41926;DHT22;27615;51.826;5.692;2022-10-31T01:07:41;13.80;99.90
41926;DHT22;27615;51.826;5.692;2022-10-31T01:10:07;13.90;99.90
41926;DHT22;27615;51.826;5.692;2022-10-31T01:12:37;13.90;99.90
41926;DHT22;27615;51.826;5.692;2022-10-31T01:15:03;13.90;99.90
41926;DHT22;27615;51.826;5.692;2022-10-31T01:17:29;13.90;99.90
41926;DHT22;27615;51.826;5.692;2022-10-31T01:19:54;13.80;99.90
41926;DHT22;27615;51.826;5.692;2022-10-31T01:22:20;13.80;99.90
41926;DHT22;27615;51.826;5.692;2022-10-31T01:24:45;13.80;99.90
41926;DHT22;27615;51.826;5.692;2022-10-31T01:27:11;13.80;99.90
41926;DHT22;27615;51.826;5.692;2022-10-31T01:29:37;13.70;99.90
41926;DHT22;27615;51.826;5.692;2022-10-31T01:32:02;13.70;99.90
41926;DHT22;27615;51.826;5.692;2022-10-31T01:34:28;13.70;99.90
41926;DHT22;27615;51.826;5.692;2022-10-31T01:36:53;13.60;99.90
41926;DHT22;27615;51.826;5.692;2022-10-31T01:39:19;13.60;99.90
41926;DHT22;27615;51.826;5.692;2022-10-31T01:41:48;13.60;99.90
41926;DHT22;27615;51.826;5.692;2022-10-31T01:46:50;13.60;99.90
41926;DHT22;27615;51.826;5.692;2022-10-31T01:49:23;13.60;99.90
41926;DHT22;27615;51.826;5.692;2022-10-31T01:51:56;13.50;99.90
41926;DHT22;27615;51.826;5.692;2022-10-31T01:54:28;13.50;99.90
41926;DHT22;27615;51.826;5.692;2022-10-31T01:56:56;13.50;99.90
41926;DHT22;27615;51.826;5.692;2022-10-31T01:59:24;13.30;99.90
41926;DHT22;27615;51.826;5.692;2022-10-31T02:01:50;13.20;99.90
41926;DHT22;27615;51.826;5.692;2022-10-31T02:04:17;13.10;99.90
41926;DHT22;27615;51.826;5.692;2022-10-31T02:06:55;13.10;99.90
41926;DHT22;27615;51.826;5.692;2022-10-31T02:09:23;13.10;99.90
41926;DHT22;27615;51.826;5.692;2022-10-31T02:11:52;13.10;99.90
41926;DHT22;27615;51.826;5.692;2022-10-31T02:14:19;13.10;99.90
41926;DHT22;27615;51.826;5.692;2022-10-31T02:16:46;13.20;99.90
41926;DHT22;27615;51.826;5.692;2022-10-31T02:19:15;13.20;99.90
41926;DHT22;27615;51.826;5.692;2022-10-31T02:22:05;13.20;99.90
41926;DHT22;27615;51.826;5.692;2022-10-31T02:25:37;13.10;99.90
41926;DHT22;27615;51.826;5.692;2022-10-31T02:30:22;13.00;99.90
41926;DHT22;27615;51.826;5.692;2022-10-31T02:35:40;12.90;99.90
41926;DHT22;27615;51.826;5.692;2022-10-31T02:38:39;12.90;99.90
41926;DHT22;27615;51.826;5.692;2022-10-31T02:41:29;12.90;99.90
41926;DHT22;27615;51.826;5.692;2022-10-31T02:44:18;12.90;99.90
41926;DHT22;27615;51.826;5.692;2022-10-31T02:46:49;12.90;99.90
41926;DHT22;27615;51.826;5.692;2022-10-31T02:49:31;12.90;99.90
41926;DHT22;27615;51.826;5.692;2022-10-31T02:51:58;12.90;99.90
41926;DHT22;27615;51.826;5.692;2022-10-31T02:54:25;12.90;99.90
41926;DHT22;27615;51.826;5.692;2022-10-31T02:56:55;12.90;99.90
41926;DHT22;27615;51.826;5.692;2022-10-31T02:59:23;12.80;99.90
41926;DHT22;27615;51.826;5.692;2022-10-31T03:02:00;12.80;99.90
41926;DHT22;27615;51.826;5.692;2022-10-31T03:10:37;12.50;99.90
41926;DHT22;27615;51.826;5.692;2022-10-31T03:15:53;12.50;99.90
41926;DHT22;27615;51.826;5.692;2022-10-31T03:18:31;12.40;99.90
41926;DHT22;27615;51.826;5.692;2022-10-31T03:21:13;12.40;99.90
41926;DHT22;27615;51.826;5.692;2022-10-31T03:23:40;12.40;99.90
41926;DHT22;27615;51.826;5.692;2022-10-31T03:26:09;12.40;99.90
41926;DHT22;27615;51.826;5.692;2022-10-31T03:28:47;12.40;99.90
41926;DHT22;27615;51.826;5.692;2022-10-31T03:31:17;12.40;99.90
41926;DHT22;27615;51.826;5.692;2022-10-31T03:33:45;12.40;99.90
41926;DHT22;27615;51.826;5.692;2022-10-31T03:36:14;12.40;99.90
41926;DHT22;27615;51.826;5.692;2022-10-31T03:38:41;12.40;99.90
41926;DHT22;27615;51.826;5.692;2022-10-31T03:41:11;12.40;99.90
41926;DHT22;27615;51.826;5.692;2022-10-31T03:43:42;12.40;99.90
41926;DHT22;27615;51.826;5.692;2022-10-31T03:46:09;12.40;99.90
41926;DHT22;27615;51.826;5.692;2022-10-31T03:48:35;12.40;99.90
41926;DHT22;27615;51.826;5.692;2022-10-31T03:51:22;12.40;99.90
41926;DHT22;27615;51.826;5.692;2022-10-31T03:53:57;12.30;99.90
41926;DHT22;27615;51.826;5.692;2022-10-31T03:56:37;12.30;99.90
41926;DHT22;27615;51.826;5.692;2022-10-31T04:01:50;12.20;99.90
41926;DHT22;27615;51.826;5.692;2022-10-31T04:04:18;12.20;99.90
41926;DHT22;27615;51.826;5.692;2022-10-31T04:06:46;12.10;99.90
41926;DHT22;27615;51.826;5.692;2022-10-31T04:09:13;12.10;99.90
41926;DHT22;27615;51.826;5.692;2022-10-31T04:11:46;12.10;99.90
41926;DHT22;27615;51.826;5.692;2022-10-31T04:14:13;12.10;99.90
41926;DHT22;27615;51.826;5.692;2022-10-31T04:16:40;12.00;99.90
41926;DHT22;27615;51.826;5.692;2022-10-31T04:19:07;12.00;99.90
41926;DHT22;27615;51.826;5.692;2022-10-31T04:21:32;12.00;99.90
41926;DHT22;27615;51.826;5.692;2022-10-31T04:23:58;11.90;99.90
41926;DHT22;27615;51.826;5.692;2022-10-31T04:26:23;11.90;99.90
41926;DHT22;27615;51.826;5.692;2022-10-31T04:28:49;11.90;99.90
41926;DHT22;27615;51.826;5.692;2022-10-31T04:31:15;11.90;99.90
41926;DHT22;27615;51.826;5.692;2022-10-31T04:33:41;11.90;99.90
41926;DHT22;27615;51.826;5.692;2022-10-31T04:36:06;11.90;99.90
41926;DHT22;27615;51.826;5.692;2022-10-31T04:38:32;12.00;99.90
41926;DHT22;27615;51.826;5.692;2022-10-31T04:40:58;12.00;99.90
41926;DHT22;27615;51.826;5.692;2022-10-31T04:43:23;11.90;99.90
41926;DHT22;27615;51.826;5.692;2022-10-31T04:45:49;11.90;99.90
41926;DHT22;27615;51.826;5.692;2022-10-31T04:48:15;11.80;99.90
41926;DHT22;27615;51.826;5.692;2022-10-31T04:50:40;11.70;99.90
41926;DHT22;27615;51.826;5.692;2022-10-31T04:53:05;11.70;99.90
41926;DHT22;27615;51.826;5.692;2022-10-31T04:55:31;11.70;99.90
41926;DHT22;27615;51.826;5.692;2022-10-31T04:58:02;11.70;99.90
41926;DHT22;27615;51.826;5.692;2022-10-31T05:00:28;11.70;99.90
41926;DHT22;27615;51.826;5.692;2022-10-31T05:02:56;11.70;99.90
41926;DHT22;27615;51.826;5.692;2022-10-31T05:05:24;11.70;99.90
41926;DHT22;27615;51.826;5.692;2022-10-31T05:07:50;11.70;99.90
41926;DHT22;27615;51.826;5.692;2022-10-31T05:10:25;11.70;99.90
41926;DHT22;27615;51.826;5.692;2022-10-31T05:13:01;11.70;99.90
41926;DHT22;27615;51.826;5.692;2022-10-31T05:15:28;11.70;99.90
41926;DHT22;27615;51.826;5.692;2022-10-31T05:17:54;11.70;99.90
41926;DHT22;27615;51.826;5.692;2022-10-31T05:20:22;11.70;99.90
41926;DHT22;27615;51.826;5.692;2022-10-31T05:22:54;11.60;99.90
41926;DHT22;27615;51.826;5.692;2022-10-31T05:25:22;11.70;99.90
41926;DHT22;27615;51.826;5.692;2022-10-31T05:27:49;11.60;99.90
41926;DHT22;27615;51.826;5.692;2022-10-31T05:30:18;11.70;99.90
41926;DHT22;27615;51.826;5.692;2022-10-31T05:32:45;11.70;99.90
41926;DHT22;27615;51.826;5.692;2022-10-31T05:35:17;11.70;99.90
41926;DHT22;27615;51.826;5.692;2022-10-31T05:37:43;11.70;99.90
41926;DHT22;27615;51.826;5.692;2022-10-31T05:40:10;11.60;99.90
41926;DHT22;27615;51.826;5.692;2022-10-31T05:42:38;11.70;99.90
41926;DHT22;27615;51.826;5.692;2022-10-31T05:45:06;11.70;99.90
41926;DHT22;27615;51.826;5.692;2022-10-31T05:47:34;11.70;99.90
41926;DHT22;27615;51.826;5.692;2022-10-31T05:49:59;11.70;99.90
41926;DHT22;27615;51.826;5.692;2022-10-31T05:52:25;11.70;99.90
41926;DHT22;27615;51.826;5.692;2022-10-31T05:54:50;11.60;99.90
41926;DHT22;27615;51.826;5.692;2022-10-31T05:57:16;11.60;99.90
41926;DHT22;27615;51.826;5.692;2022-10-31T05:59:41;11.50;99.90
41926;DHT22;27615;51.826;5.692;2022-10-31T06:02:07;11.50;99.90
41926;DHT22;27615;51.826;5.692;2022-10-31T06:04:32;11.50;99.90
41926;DHT22;27615;51.826;5.692;2022-10-31T06:06:58;11.50;99.90
41926;DHT22;27615;51.826;5.692;2022-10-31T06:09:28;11.40;99.90
41926;DHT22;27615;51.826;5.692;2022-10-31T06:11:54;11.40;99.90
41926;DHT22;27615;51.826;5.692;2022-10-31T06:14:19;11.50;99.90
41926;DHT22;27615;51.826;5.692;2022-10-31T06:16:45;11.40;99.90
41926;DHT22;27615;51.826;5.692;2022-10-31T06:19:13;11.40;99.90
41926;DHT22;27615;51.826;5.692;2022-10-31T06:21:38;11.40;99.90
41926;DHT22;27615;51.826;5.692;2022-10-31T06:24:04;11.40;99.90
41926;DHT22;27615;51.826;5.692;2022-10-31T06:26:30;11.50;99.90
41926;DHT22;27615;51.826;5.692;2022-10-31T06:28:55;11.50;99.90
41926;DHT22;27615;51.826;5.692;2022-10-31T06:31:21;11.40;99.90
41926;DHT22;27615;51.826;5.692;2022-10-31T06:33:46;11.40;99.90
41926;DHT22;27615;51.826;5.692;2022-10-31T06:36:12;11.30;99.90
41926;DHT22;27615;51.826;5.692;2022-10-31T06:38:42;11.40;99.90
41926;DHT22;27615;51.826;5.692;2022-10-31T06:41:15;11.40;99.90
41926;DHT22;27615;51.826;5.692;2022-10-31T06:43:40;11.40;99.90
41926;DHT22;27615;51.826;5.692;2022-10-31T06:46:06;11.40;99.90
41926;DHT22;27615;51.826;5.692;2022-10-31T06:48:32;11.50;99.90
41926;DHT22;27615;51.826;5.692;2022-10-31T06:51:01;11.50;99.90
41926;DHT22;27615;51.826;5.692;2022-10-31T06:53:27;11.50;99.90
41926;DHT22;27615;51.826;5.692;2022-10-31T06:55:55;11.60;99.90
41926;DHT22;27615;51.826;5.692;2022-10-31T06:58:21;11.60;99.90
41926;DHT22;27615;51.826;5.692;2022-10-31T07:00:46;11.60;99.90
41926;DHT22;27615;51.826;5.692;2022-10-31T07:03:13;11.60;99.90
41926;DHT22;27615;51.826;5.692;2022-10-31T07:05:39;11.60;99.90
41926;DHT22;27615;51.826;5.692;2022-10-31T07:08:07;11.60;99.90
41926;DHT22;27615;51.826;5.692;2022-10-31T07:10:35;11.60;99.90
41926;DHT22;27615;51.826;5.692;2022-10-31T07:13:03;11.60;99.90
41926;DHT22;27615;51.826;5.692;2022-10-31T07:15:32;11.60;99.90
41926;DHT22;27615;51.826;5.692;2022-10-31T07:18:02;11.60;99.90
41926;DHT22;27615;51.826;5.692;2022-10-31T07:20:29;11.60;99.90
41926;DHT22;27615;51.826;5.692;2022-10-31T07:22:54;11.60;99.90
41926;DHT22;27615;51.826;5.692;2022-10-31T07:25:20;11.60;99.90
41926;DHT22;27615;51.826;5.692;2022-10-31T07:27:46;11.60;99.90
41926;DHT22;27615;51.826;5.692;2022-10-31T07:30:13;11.70;99.90
41926;DHT22;27615;51.826;5.692;2022-10-31T07:32:40;11.70;99.90
41926;DHT22;27615;51.826;5.692;2022-10-31T07:35:08;11.80;99.90
41926;DHT22;27615;51.826;5.692;2022-10-31T07:37:33;11.80;99.90
41926;DHT22;27615;51.826;5.692;2022-10-31T07:39:59;11.90;99.90
41926;DHT22;27615;51.826;5.692;2022-10-31T07:42:27;11.90;99.90
41926;DHT22;27615;51.826;5.692;2022-10-31T07:44:53;12.00;99.90
41926;DHT22;27615;51.826;5.692;2022-10-31T07:47:18;12.00;99.90
41926;DHT22;27615;51.826;5.692;2022-10-31T07:49:44;12.10;99.90
41926;DHT22;27615;51.826;5.692;2022-10-31T07:52:12;12.10;99.90
41926;DHT22;27615;51.826;5.692;2022-10-31T07:54:37;12.20;99.90
41926;DHT22;27615;51.826;5.692;2022-10-31T07:57:03;12.20;99.90
41926;DHT22;27615;51.826;5.692;2022-10-31T07:59:28;12.30;99.90
41926;DHT22;27615;51.826;5.692;2022-10-31T08:01:54;12.40;99.90
41926;DHT22;27615;51.826;5.692;2022-10-31T08:04:19;12.40;99.90
41926;DHT22;27615;51.826;5.692;2022-10-31T08:06:45;12.50;99.90
41926;DHT22;27615;51.826;5.692;2022-10-31T08:09:13;12.60;99.90
41926;DHT22;27615;51.826;5.692;2022-10-31T08:11:39;12.70;99.90
41926;DHT22;27615;51.826;5.692;2022-10-31T08:14:04;12.80;99.90
41926;DHT22;27615;51.826;5.692;2022-10-31T08:16:30;12.90;99.90
41926;DHT22;27615;51.826;5.692;2022-10-31T08:18:55;13.00;99.90
41926;DHT22;27615;51.826;5.692;2022-10-31T08:21:21;13.10;99.90
41926;DHT22;27615;51.826;5.692;2022-10-31T08:23:49;13.20;99.90
41926;DHT22;27615;51.826;5.692;2022-10-31T08:26:15;13.20;99.90
41926;DHT22;27615;51.826;5.692;2022-10-31T08:28:40;13.30;99.90
41926;DHT22;27615;51.826;5.692;2022-10-31T08:31:08;13.40;99.90
41926;DHT22;27615;51.826;5.692;2022-10-31T08:33:41;13.40;99.90
41926;DHT22;27615;51.826;5.692;2022-10-31T08:36:07;13.60;99.90
41926;DHT22;27615;51.826;5.692;2022-10-31T08:38:33;13.60;99.90
41926;DHT22;27615;51.826;5.692;2022-10-31T08:40:58;13.70;99.90
41926;DHT22;27615;51.826;5.692;2022-10-31T08:43:24;13.80;99.90
41926;DHT22;27615;51.826;5.692;2022-10-31T08:45:49;13.90;99.90
41926;DHT22;27615;51.826;5.692;2022-10-31T08:48:16;14.00;99.90
41926;DHT22;27615;51.826;5.692;2022-10-31T08:50:43;14.10;99.90
41926;DHT22;27615;51.826;5.692;2022-10-31T08:53:12;14.10;99.90
41926;DHT22;27615;51.826;5.692;2022-10-31T08:55:39;14.20;99.90
41926;DHT22;27615;51.826;5.692;2022-10-31T08:58:06;14.20;99.90
41926;DHT22;27615;51.826;5.692;2022-10-31T09:00:33;14.20;99.90
41926;DHT22;27615;51.826;5.692;2022-10-31T09:03:01;14.30;99.90
41926;DHT22;27615;51.826;5.692;2022-10-31T09:05:27;14.30;99.90
41926;DHT22;27615;51.826;5.692;2022-10-31T09:08:00;14.40;99.90
41926;DHT22;27615;51.826;5.692;2022-10-31T09:10:27;14.40;99.90
41926;DHT22;27615;51.826;5.692;2022-10-31T09:12:57;14.40;99.90
41926;DHT22;27615;51.826;5.692;2022-10-31T09:15:25;14.50;99.90
41926;DHT22;27615;51.826;5.692;2022-10-31T09:17:50;14.50;99.90
41926;DHT22;27615;51.826;5.692;2022-10-31T09:20:23;14.60;99.90
41926;DHT22;27615;51.826;5.692;2022-10-31T09:22:56;14.70;99.90
41926;DHT22;27615;51.826;5.692;2022-10-31T09:25:22;14.80;99.90
41926;DHT22;27615;51.826;5.692;2022-10-31T09:27:48;14.90;99.90
41926;DHT22;27615;51.826;5.692;2022-10-31T09:30:13;15.00;99.90
41926;DHT22;27615;51.826;5.692;2022-10-31T09:32:39;15.00;99.90
41926;DHT22;27615;51.826;5.692;2022-10-31T09:35:04;15.10;99.90
41926;DHT22;27615;51.826;5.692;2022-10-31T09:37:30;15.20;99.90
41926;DHT22;27615;51.826;5.692;2022-10-31T09:39:56;15.30;99.90
41926;DHT22;27615;51.826;5.692;2022-10-31T09:47:48;15.40;99.90
41926;DHT22;27615;51.826;5.692;2022-10-31T09:50:20;15.50;99.90
41926;DHT22;27615;51.826;5.692;2022-10-31T09:52:58;15.40;99.90
41926;DHT22;27615;51.826;5.692;2022-10-31T09:55:40;15.50;99.90
41926;DHT22;27615;51.826;5.692;2022-10-31T09:58:15;15.50;99.90
41926;DHT22;27615;51.826;5.692;2022-10-31T10:00:43;15.70;99.90
41926;DHT22;27615;51.826;5.692;2022-10-31T10:03:31;15.80;99.90
41926;DHT22;27615;51.826;5.692;2022-10-31T10:08:44;15.90;99.90
41926;DHT22;27615;51.826;5.692;2022-10-31T10:11:42;16.00;99.90
41926;DHT22;27615;51.826;5.692;2022-10-31T10:14:24;16.10;99.90
41926;DHT22;27615;51.826;5.692;2022-10-31T10:17:11;16.10;99.90
41926;DHT22;27615;51.826;5.692;2022-10-31T10:22:30;16.10;99.90
41926;DHT22;27615;51.826;5.692;2022-10-31T10:25:24;16.00;99.90
41926;DHT22;27615;51.826;5.692;2022-10-31T10:28:18;16.10;99.90
41926;DHT22;27615;51.826;5.692;2022-10-31T10:30:52;16.10;99.90
41926;DHT22;27615;51.826;5.692;2022-10-31T10:33:39;16.20;99.90
41926;DHT22;27615;51.826;5.692;2022-10-31T10:36:14;16.30;99.90
41926;DHT22;27615;51.826;5.692;2022-10-31T10:38:52;16.30;99.90
41926;DHT22;27615;51.826;5.692;2022-10-31T10:41:21;16.60;99.90
41926;DHT22;27615;51.826;5.692;2022-10-31T10:43:49;16.80;99.90
41926;DHT22;27615;51.826;5.692;2022-10-31T10:46:23;17.30;99.90
41926;DHT22;27615;51.826;5.692;2022-10-31T10:49:50;17.60;99.90
41926;DHT22;27615;51.826;5.692;2022-10-31T10:57:53;18.20;99.90
41926;DHT22;27615;51.826;5.692;2022-10-31T11:00:21;18.30;99.90
41926;DHT22;27615;51.826;5.692;2022-10-31T11:02:50;18.30;99.90
41926;DHT22;27615;51.826;5.692;2022-10-31T11:05:41;18.40;99.90
41926;DHT22;27615;51.826;5.692;2022-10-31T11:08:08;18.50;99.90
41926;DHT22;27615;51.826;5.692;2022-10-31T11:10:34;18.60;99.90
41926;DHT22;27615;51.826;5.692;2022-10-31T11:15:50;18.70;99.90
41926;DHT22;27615;51.826;5.692;2022-10-31T11:18:24;18.60;99.90
41926;DHT22;27615;51.826;5.692;2022-10-31T11:20:53;18.70;99.90
41926;DHT22;27615;51.826;5.692;2022-10-31T11:23:20;18.90;99.90
41926;DHT22;27615;51.826;5.692;2022-10-31T11:26:00;19.00;99.90
41926;DHT22;27615;51.826;5.692;2022-10-31T11:28:28;19.10;99.90
41926;DHT22;27615;51.826;5.692;2022-10-31T11:31:16;19.30;99.90
41926;DHT22;27615;51.826;5.692;2022-10-31T11:33:47;19.50;99.90
41926;DHT22;27615;51.826;5.692;2022-10-31T11:36:43;19.50;99.90
41926;DHT22;27615;51.826;5.692;2022-10-31T11:39:22;19.60;99.90
41926;DHT22;27615;51.826;5.692;2022-10-31T11:41:48;19.80;99.90
41926;DHT22;27615;51.826;5.692;2022-10-31T11:44:25;19.90;99.40
41926;DHT22;27615;51.826;5.692;2022-10-31T11:47:02;19.80;98.60
41926;DHT22;27615;51.826;5.692;2022-10-31T11:49:41;19.60;98.80
41926;DHT22;27615;51.826;5.692;2022-10-31T11:52:28;19.40;98.60
41926;DHT22;27615;51.826;5.692;2022-10-31T11:55:14;19.40;99.10
41926;DHT22;27615;51.826;5.692;2022-10-31T11:57:46;19.60;99.30
41926;DHT22;27615;51.826;5.692;2022-10-31T12:08:40;20.10;97.40
41926;DHT22;27615;51.826;5.692;2022-10-31T12:11:37;20.10;97.30
41926;DHT22;27615;51.826;5.692;2022-10-31T12:14:16;19.90;97.30
41926;DHT22;27615;51.826;5.692;2022-10-31T12:16:53;19.70;97.40
41926;DHT22;27615;51.826;5.692;2022-10-31T12:19:36;19.50;97.60
41926;DHT22;27615;51.826;5.692;2022-10-31T12:22:08;20.00;97.50
41926;DHT22;27615;51.826;5.692;2022-10-31T12:27:47;20.60;95.10
41926;DHT22;27615;51.826;5.692;2022-10-31T12:30:30;20.90;94.90
41926;DHT22;27615;51.826;5.692;2022-10-31T12:33:15;21.10;94.30
41926;DHT22;27615;51.826;5.692;2022-10-31T12:36:08;21.30;94.30
41926;DHT22;27615;51.826;5.692;2022-10-31T12:41:52;21.20;93.40
41926;DHT22;27615;51.826;5.692;2022-10-31T12:44:44;21.10;93.80
41926;DHT22;27615;51.826;5.692;2022-10-31T12:50:20;21.20;93.50
41926;DHT22;27615;51.826;5.692;2022-10-31T12:58:09;22.00;92.30
41926;DHT22;27615;51.826;5.692;2022-10-31T13:00:39;22.40;91.10
41926;DHT22;27615;51.826;5.692;2022-10-31T13:03:24;22.70;90.40
41926;DHT22;27615;51.826;5.692;2022-10-31T13:05:57;22.80;89.30
41926;DHT22;27615;51.826;5.692;2022-10-31T13:08:47;23.00;87.10
41926;DHT22;27615;51.826;5.692;2022-10-31T13:16:25;22.70;86.80
41926;DHT22;27615;51.826;5.692;2022-10-31T13:19:10;22.60;86.10
41926;DHT22;27615;51.826;5.692;2022-10-31T13:21:57;22.70;86.20
41926;DHT22;27615;51.826;5.692;2022-10-31T13:24:45;22.70;84.20
41926;DHT22;27615;51.826;5.692;2022-10-31T13:27:20;22.50;84.00
41926;DHT22;27615;51.826;5.692;2022-10-31T13:32:41;22.00;84.90
41926;DHT22;27615;51.826;5.692;2022-10-31T13:41:05;21.70;85.10
41926;DHT22;27615;51.826;5.692;2022-10-31T13:44:05;21.50;85.00
41926;DHT22;27615;51.826;5.692;2022-10-31T13:46:36;21.40;86.40
41926;DHT22;27615;51.826;5.692;2022-10-31T13:49:03;21.40;86.70
41926;DHT22;27615;51.826;5.692;2022-10-31T13:51:31;21.30;86.10
41926;DHT22;27615;51.826;5.692;2022-10-31T13:54:00;20.90;86.60
41926;DHT22;27615;51.826;5.692;2022-10-31T13:56:31;20.80;88.00
41926;DHT22;27615;51.826;5.692;2022-10-31T14:01:28;20.70;87.10
41926;DHT22;27615;51.826;5.692;2022-10-31T14:04:16;20.60;87.80
41926;DHT22;27615;51.826;5.692;2022-10-31T14:06:56;20.40;88.50
41926;DHT22;27615;51.826;5.692;2022-10-31T14:09:38;20.40;89.60
41926;DHT22;27615;51.826;5.692;2022-10-31T14:12:08;20.30;89.30
41926;DHT22;27615;51.826;5.692;2022-10-31T14:14:44;20.20;90.10
41926;DHT22;27615;51.826;5.692;2022-10-31T14:17:18;20.20;90.30
41926;DHT22;27615;51.826;5.692;2022-10-31T14:22:38;20.00;90.10
41926;DHT22;27615;51.826;5.692;2022-10-31T14:25:28;19.90;90.40
41926;DHT22;27615;51.826;5.692;2022-10-31T14:27:54;19.90;90.50
41926;DHT22;27615;51.826;5.692;2022-10-31T14:30:23;19.80;90.60
41926;DHT22;27615;51.826;5.692;2022-10-31T14:32:55;19.60;90.90
41926;DHT22;27615;51.826;5.692;2022-10-31T14:35:25;19.60;91.10
41926;DHT22;27615;51.826;5.692;2022-10-31T14:48:47;19.40;91.70
41926;DHT22;27615;51.826;5.692;2022-10-31T14:53:52;19.30;92.20
41926;DHT22;27615;51.826;5.692;2022-10-31T14:56:30;19.30;92.30
41926;DHT22;27615;51.826;5.692;2022-10-31T14:59:11;19.30;92.40
41926;DHT22;27615;51.826;5.692;2022-10-31T15:01:39;19.30;92.40
41926;DHT22;27615;51.826;5.692;2022-10-31T15:04:26;19.30;92.50
41926;DHT22;27615;51.826;5.692;2022-10-31T15:07:12;19.40;92.40
41926;DHT22;27615;51.826;5.692;2022-10-31T15:09:40;19.40;92.40
41926;DHT22;27615;51.826;5.692;2022-10-31T15:14:49;19.40;92.50
41926;DHT22;27615;51.826;5.692;2022-10-31T15:17:15;19.40;92.60
41926;DHT22;27615;51.826;5.692;2022-10-31T15:19:42;19.50;92.60
41926;DHT22;27615;51.826;5.692;2022-10-31T15:22:13;19.60;92.60
41926;DHT22;27615;51.826;5.692;2022-10-31T15:24:39;19.60;92.60
41926;DHT22;27615;51.826;5.692;2022-10-31T15:27:05;19.70;92.60
41926;DHT22;27615;51.826;5.692;2022-10-31T15:29:35;19.80;92.60
41926;DHT22;27615;51.826;5.692;2022-10-31T15:32:20;19.90;92.50
41926;DHT22;27615;51.826;5.692;2022-10-31T15:34:46;19.90;92.30
41926;DHT22;27615;51.826;5.692;2022-10-31T15:37:13;19.90;92.50
41926;DHT22;27615;51.826;5.692;2022-10-31T15:39:40;19.90;92.60
41926;DHT22;27615;51.826;5.692;2022-10-31T15:42:24;19.90;92.70
41926;DHT22;27615;51.826;5.692;2022-10-31T15:47:46;19.80;92.70
41926;DHT22;27615;51.826;5.692;2022-10-31T15:50:31;19.70;92.90
41926;DHT22;27615;51.826;5.692;2022-10-31T15:52:57;19.60;93.00
41926;DHT22;27615;51.826;5.692;2022-10-31T15:55:27;19.50;93.30
41926;DHT22;27615;51.826;5.692;2022-10-31T15:58:03;19.40;93.40
41926;DHT22;27615;51.826;5.692;2022-10-31T16:00:37;19.40;93.60
41926;DHT22;27615;51.826;5.692;2022-10-31T16:03:18;19.30;93.60
41926;DHT22;27615;51.826;5.692;2022-10-31T16:05:47;19.20;93.80
41926;DHT22;27615;51.826;5.692;2022-10-31T16:08:35;19.10;93.90
41926;DHT22;27615;51.826;5.692;2022-10-31T16:14:03;19.00;94.10
41926;DHT22;27615;51.826;5.692;2022-10-31T16:16:28;19.00;94.10
41926;DHT22;27615;51.826;5.692;2022-10-31T16:18:55;18.90;94.30
41926;DHT22;27615;51.826;5.692;2022-10-31T16:21:27;18.90;94.40
41926;DHT22;27615;51.826;5.692;2022-10-31T16:23:59;18.80;94.50
41926;DHT22;27615;51.826;5.692;2022-10-31T16:26:26;18.70;94.60
41926;DHT22;27615;51.826;5.692;2022-10-31T16:28:53;18.60;94.70
41926;DHT22;27615;51.826;5.692;2022-10-31T16:31:27;18.60;94.80
41926;DHT22;27615;51.826;5.692;2022-10-31T16:34:02;18.50;94.80
41926;DHT22;27615;51.826;5.692;2022-10-31T16:36:29;18.50;95.20
41926;DHT22;27615;51.826;5.692;2022-10-31T16:38:58;18.40;95.00
41926;DHT22;27615;51.826;5.692;2022-10-31T16:41:25;18.40;95.10
41926;DHT22;27615;51.826;5.692;2022-10-31T16:43:51;18.30;95.20
41926;DHT22;27615;51.826;5.692;2022-10-31T16:46:26;18.20;95.30
41926;DHT22;27615;51.826;5.692;2022-10-31T16:48:52;18.20;95.30
41926;DHT22;27615;51.826;5.692;2022-10-31T16:51:18;18.10;95.50
41926;DHT22;27615;51.826;5.692;2022-10-31T16:53:46;18.10;95.60
41926;DHT22;27615;51.826;5.692;2022-10-31T16:56:16;18.00;95.70
41926;DHT22;27615;51.826;5.692;2022-10-31T16:58:42;18.00;95.80
41926;DHT22;27615;51.826;5.692;2022-10-31T17:01:09;17.90;95.90
41926;DHT22;27615;51.826;5.692;2022-10-31T17:03:36;17.90;96.00
41926;DHT22;27615;51.826;5.692;2022-10-31T17:06:02;17.80;96.10
41926;DHT22;27615;51.826;5.692;2022-10-31T17:08:27;17.80;96.20
41926;DHT22;27615;51.826;5.692;2022-10-31T17:10:57;17.80;96.30
41926;DHT22;27615;51.826;5.692;2022-10-31T17:13:27;17.80;96.30
41926;DHT22;27615;51.826;5.692;2022-10-31T17:15:54;17.70;96.40
41926;DHT22;27615;51.826;5.692;2022-10-31T17:18:20;17.70;96.50
41926;DHT22;27615;51.826;5.692;2022-10-31T17:20:46;17.60;96.50
41926;DHT22;27615;51.826;5.692;2022-10-31T17:23:14;17.60;96.60
41926;DHT22;27615;51.826;5.692;2022-10-31T17:25:40;17.50;96.80
41926;DHT22;27615;51.826;5.692;2022-10-31T17:28:06;17.50;97.10
41926;DHT22;27615;51.826;5.692;2022-10-31T17:30:32;17.30;97.40
41926;DHT22;27615;51.826;5.692;2022-10-31T17:32:59;17.30;97.60
41926;DHT22;27615;51.826;5.692;2022-10-31T17:35:24;17.30;97.60